createdAt,value
2019-02-20T00:00:20.536Z,98553.12
2019-02-20T00:02:51.765Z,98549.42
2019-02-20T00:05:22.275Z,98541.38
2019-02-20T00:07:52.559Z,98538.98
2019-02-20T00:10:23.539Z,98536.91
2019-02-20T00:12:54.165Z,98535.80
2019-02-20T00:15:24.653Z,98528.19
2019-02-20T00:17:55.221Z,98527.08
2019-02-20T00:20:25.434Z,98519.30
2019-02-20T00:22:55.861Z,98519.69
2019-02-20T00:25:26.191Z,98506.44
2019-02-20T00:27:56.694Z,98508.63
2019-02-20T00:30:27.172Z,98492.71
2019-02-20T00:32:58.149Z,98495.73
2019-02-20T00:35:28.847Z,98483.39
2019-02-20T00:37:59.174Z,98485.55
2019-02-20T00:40:29.790Z,98489.50
2019-02-20T00:43:00.451Z,98482.80
2019-02-20T00:45:40.136Z,98476.83
2019-02-20T00:48:39.327Z,98476.39
2019-02-20T00:51:19.168Z,98471.14
2019-02-20T00:53:56.206Z,98472.05
2019-02-20T00:56:26.578Z,98457.34
2019-02-20T00:58:57.188Z,98464.77
2019-02-20T01:01:27.495Z,98453.79
2019-02-20T01:03:57.627Z,98463.02
2019-02-20T01:06:28.028Z,98442.86
2019-02-20T01:08:58.597Z,98442.38
2019-02-20T01:11:28.690Z,98437.02
2019-02-20T01:13:59.391Z,98435.09
2019-02-20T01:16:29.696Z,98438.58
2019-02-20T01:19:00.551Z,98433.17
2019-02-20T01:21:31.028Z,98427.28
2019-02-20T01:24:02.077Z,98422.22
2019-02-20T01:26:32.539Z,98410.23
2019-02-20T01:29:02.878Z,98415.66
2019-02-20T01:31:33.097Z,98415.00
2019-02-20T01:34:03.525Z,98407.91
2019-02-20T01:36:33.836Z,98396.61
2019-02-20T01:39:05.532Z,98396.09
2019-02-20T01:41:35.858Z,98401.71
2019-02-20T01:44:06.261Z,98382.83
2019-02-20T01:46:36.705Z,98387.80
2019-02-20T01:49:06.811Z,98389.84
2019-02-20T01:51:37.145Z,98380.97
2019-02-20T01:54:07.666Z,98379.68
2019-02-20T01:56:38.756Z,98378.66
2019-02-20T01:59:09.019Z,98370.47
2019-02-20T02:01:39.534Z,98368.59
2019-02-20T02:04:10.324Z,98363.74
2019-02-20T02:06:40.874Z,98371.33
2019-02-20T02:09:11.159Z,98363.95
2019-02-20T02:11:41.628Z,98366.31
2019-02-20T02:14:11.813Z,98360.50
2019-02-20T02:16:42.132Z,98350.53
2019-02-20T02:19:12.221Z,98354.41
2019-02-20T02:21:42.550Z,98342.34
2019-02-20T02:24:12.909Z,98351.66
2019-02-20T02:26:43.368Z,98342.98
2019-02-20T02:29:13.613Z,98342.55
2019-02-20T02:31:43.931Z,98329.67
2019-02-20T02:34:14.083Z,98326.55
2019-02-20T02:36:44.857Z,98330.25
2019-02-20T02:39:15.750Z,98327.66
2019-02-20T02:41:46.127Z,98334.58
2019-02-20T02:44:16.328Z,98333.60
2019-02-20T02:46:47.037Z,98320.87
2019-02-20T02:49:17.271Z,98309.77
2019-02-20T02:51:47.699Z,98312.41
2019-02-20T02:54:17.772Z,98302.44
2019-02-20T02:56:48.217Z,98299.48
2019-02-20T02:59:18.338Z,98305.73
2019-02-20T03:01:48.547Z,98294.56
2019-02-20T03:04:18.770Z,98291.00
2019-02-20T03:06:49.338Z,98299.99
2019-02-20T03:09:19.361Z,98296.11
2019-02-20T03:11:49.681Z,98286.20
2019-02-20T03:14:20.932Z,98287.97
2019-02-20T03:16:51.007Z,98283.94
2019-02-20T03:19:21.299Z,98281.35
2019-02-20T03:21:51.551Z,98275.67
2019-02-20T03:24:21.691Z,98281.66
2019-02-20T03:26:52.267Z,98277.60
2019-02-20T03:29:22.741Z,98268.48
2019-02-20T03:31:53.430Z,98263.19
2019-02-20T03:34:24.094Z,98259.46
2019-02-20T03:36:54.638Z,98259.02
2019-02-20T03:39:25.354Z,98264.13
2019-02-20T03:41:56.105Z,98253.66
2019-02-20T03:44:26.821Z,98257.79
2019-02-20T03:46:57.335Z,98250.41
2019-02-20T03:49:28.038Z,98252.98
2019-02-20T03:51:58.498Z,98251.57
2019-02-20T03:54:29.504Z,98244.50
2019-02-20T03:57:01.027Z,98241.62
2019-02-20T03:59:32.158Z,98247.65
2019-02-20T04:02:02.403Z,98243.63
2019-02-20T04:04:32.968Z,98245.30
2019-02-20T04:07:04.223Z,98248.14
2019-02-20T04:09:35.117Z,98244.64
2019-02-20T04:12:06.166Z,98232.79
2019-02-20T04:14:36.365Z,98237.11
2019-02-20T04:17:06.571Z,98236.06
2019-02-20T04:19:37.575Z,98238.52
2019-02-20T04:22:08.476Z,98231.13
2019-02-20T04:24:38.963Z,98230.22
2019-02-20T04:27:09.593Z,98226.88
2019-02-20T04:29:40.230Z,98222.06
2019-02-20T04:32:10.939Z,98228.92
2019-02-20T04:34:41.468Z,98228.72
2019-02-20T04:37:12.474Z,98222.36
2019-02-20T04:39:43.277Z,98230.06
2019-02-20T04:42:13.727Z,98226.17
2019-02-20T04:44:44.169Z,98233.78
2019-02-20T04:47:18.124Z,98228.66
2019-02-20T04:49:48.622Z,98223.48
2019-02-20T04:52:19.149Z,98220.00
2019-02-20T04:54:49.855Z,98223.59
2019-02-20T04:57:20.327Z,98223.96
2019-02-20T04:59:50.997Z,98222.09
2019-02-20T05:02:22.825Z,98223.31
2019-02-20T05:04:54.025Z,98218.45
2019-02-20T05:07:24.820Z,98218.89
2019-02-20T05:09:57.757Z,98219.57
2019-02-20T05:12:28.399Z,98222.64
2019-02-20T05:14:59.223Z,98212.27
2019-02-20T05:17:30.619Z,98214.05
2019-02-20T05:20:01.201Z,98233.92
2019-02-20T05:22:32.276Z,98219.91
2019-02-20T05:25:03.624Z,98211.62
2019-02-20T05:27:34.734Z,98218.78
2019-02-20T05:30:11.208Z,98214.96
2019-02-20T05:32:42.685Z,98203.23
2019-02-20T05:35:17.219Z,98183.24
2019-02-20T05:37:51.414Z,98177.84
2019-02-20T05:40:23.631Z,98169.08
2019-02-20T05:42:54.520Z,98159.62
2019-02-20T05:45:26.295Z,98185.10
2019-02-20T05:47:57.489Z,98183.41
2019-02-20T05:50:27.889Z,98181.05
2019-02-20T05:52:58.678Z,98181.73
2019-02-20T05:55:29.096Z,98183.09
2019-02-20T05:58:01.322Z,98173.95
2019-02-20T06:00:33.275Z,98173.58
2019-02-20T06:03:05.119Z,98177.77
2019-02-20T06:05:36.441Z,98165.56
2019-02-20T06:08:09.596Z,98162.08
2019-02-20T06:10:40.120Z,98163.81
2019-02-20T06:13:11.406Z,98162.08
2019-02-20T06:15:43.199Z,98161.76
2019-02-20T06:18:15.540Z,98159.70
2019-02-20T06:20:47.440Z,98157.63
2019-02-20T06:23:19.198Z,98164.59
2019-02-20T06:25:50.179Z,98157.56
2019-02-20T06:28:21.437Z,98161.30
2019-02-20T06:30:53.662Z,98163.11
2019-02-20T06:33:24.402Z,98156.73
2019-02-20T06:35:55.921Z,98152.97
2019-02-20T06:38:27.355Z,98152.38
2019-02-20T06:40:58.575Z,98155.64
2019-02-20T06:43:29.343Z,98156.94
2019-02-20T06:46:00.592Z,98159.16
2019-02-20T06:48:32.076Z,98145.56
2019-02-20T06:51:03.336Z,98157.02
2019-02-20T06:53:35.689Z,98163.42
2019-02-20T06:56:06.826Z,98166.09
2019-02-20T06:58:38.739Z,98166.24
2019-02-20T07:01:09.918Z,98154.20
2019-02-20T07:03:40.934Z,98157.53
2019-02-20T07:06:42.990Z,98162.66
2019-02-20T07:10:00.550Z,98163.50
2019-02-20T07:12:53.600Z,98172.33
2019-02-20T07:16:09.109Z,98163.35
2019-02-20T07:19:08.069Z,98158.61
2019-02-20T07:22:20.915Z,98164.69
2019-02-20T07:25:15.350Z,98164.98
2019-02-20T12:46:37.644Z,98043.80
2019-02-20T12:49:08.530Z,98035.98
2019-02-20T12:51:39.233Z,98049.19
2019-02-20T12:54:10.133Z,98042.67
2019-02-20T12:56:43.983Z,98037.29
2019-02-20T12:59:14.263Z,98040.37
2019-02-20T13:01:44.698Z,98045.11
2019-02-20T13:04:15.417Z,98038.31
2019-02-20T13:06:45.987Z,98039.16
2019-02-20T13:09:18.408Z,98044.42
2019-02-20T13:11:49.118Z,98036.52
2019-02-20T13:14:20.135Z,98044.04
2019-02-20T13:16:51.587Z,98031.13
2019-02-20T13:19:22.794Z,98037.61
2019-02-20T13:21:53.478Z,98035.94
2019-02-20T13:24:24.392Z,98031.47
2019-02-20T13:26:55.736Z,98031.30
2019-02-20T13:29:26.948Z,98024.06
2019-02-20T13:31:58.923Z,98019.31
2019-02-20T13:34:29.853Z,98015.53
2019-02-20T13:37:01.213Z,98021.72
2019-02-20T13:39:32.002Z,98014.66
2019-02-20T13:42:03.239Z,98019.05
2019-02-20T13:44:34.447Z,98022.94
2019-02-20T13:47:05.331Z,98003.33
2019-02-20T13:49:35.855Z,98011.25
2019-02-20T13:52:06.449Z,97996.58
2019-02-20T13:54:37.732Z,98002.53
2019-02-20T13:57:08.396Z,98009.85
2019-02-20T13:59:41.067Z,98007.34
2019-02-20T14:02:11.689Z,97996.21
2019-02-20T14:04:42.484Z,98002.23
2019-02-20T14:07:12.865Z,98002.70
2019-02-20T14:09:45.547Z,98002.23
2019-02-20T14:12:16.525Z,98006.04
2019-02-20T14:14:47.263Z,97995.47
2019-02-20T14:17:26.434Z,98000.22
2019-02-20T14:19:51.211Z,97998.91
2019-02-20T14:22:22.173Z,97994.53
2019-02-20T14:24:52.964Z,97996.94
2019-02-20T14:27:23.975Z,98003.81
2019-02-20T14:29:54.593Z,97995.25
2019-02-20T14:32:26.214Z,98000.09
2019-02-20T14:34:57.023Z,97995.25
2019-02-20T14:37:27.523Z,97994.63
2019-02-20T14:39:58.621Z,98001.50
2019-02-20T14:42:29.510Z,97999.16
2019-02-20T14:45:00.158Z,97998.70
2019-02-20T14:47:30.921Z,98002.49
2019-02-20T14:50:01.859Z,97991.73
2019-02-20T14:52:32.739Z,98000.46
2019-02-20T14:55:04.030Z,97992.75
2019-02-20T14:57:34.529Z,97996.37
2019-02-20T15:00:06.053Z,97992.55
2019-02-20T15:02:36.671Z,97997.84
2019-02-20T15:05:06.917Z,97989.67
2019-02-20T15:07:38.453Z,97982.98
2019-02-20T15:10:10.127Z,97990.38
2019-02-20T15:12:40.731Z,97982.05
2019-02-20T15:15:11.466Z,97980.73
2019-02-20T15:17:43.212Z,97980.19
2019-02-20T15:20:14.267Z,97979.70
2019-02-20T15:22:46.417Z,97975.08
2019-02-20T15:25:18.259Z,97982.13
2019-02-20T15:27:49.289Z,97976.09
2019-02-20T15:30:20.193Z,97982.78
2019-02-20T15:32:51.077Z,97976.66
2019-02-20T15:35:21.660Z,97985.95
2019-02-20T15:37:52.172Z,97979.53
2019-02-20T15:40:23.476Z,97980.50
2019-02-20T15:42:54.746Z,97990.60
2019-02-20T15:45:25.273Z,97977.16
2019-02-20T15:47:56.847Z,97986.88
2019-02-20T15:50:28.478Z,97978.80
2019-02-20T15:52:59.732Z,97982.61
2019-02-20T15:55:30.691Z,97973.87
2019-02-20T15:58:01.380Z,97974.08
2019-02-20T16:00:32.160Z,97966.39
2019-02-20T16:03:02.671Z,97967.78
2019-02-20T16:05:33.125Z,97968.23
2019-02-20T16:08:04.071Z,97964.98
2019-02-20T16:10:34.934Z,97969.70
2019-02-20T16:13:06.554Z,97965.08
2019-02-20T16:15:37.354Z,97959.20
2019-02-20T16:18:10.276Z,97949.01
2019-02-20T16:20:40.865Z,97944.63
2019-02-20T16:23:11.208Z,97950.11
2019-02-20T16:25:42.134Z,97952.34
2019-02-20T16:28:12.789Z,97942.31
2019-02-20T16:30:44.457Z,97935.91
2019-02-20T16:33:15.904Z,97932.38
2019-02-20T16:35:48.265Z,97935.25
2019-02-20T16:38:18.910Z,97930.82
2019-02-20T16:40:49.621Z,97932.56
2019-02-20T16:43:20.692Z,97931.09
2019-02-20T16:45:52.031Z,97925.63
2019-02-20T16:48:22.626Z,97922.34
2019-02-20T16:50:53.135Z,97919.30
2019-02-20T16:53:23.662Z,97923.73
2019-02-20T16:55:55.723Z,97918.74
2019-02-20T16:58:26.750Z,97925.44
2019-02-20T17:00:57.155Z,97923.22
2019-02-20T17:03:28.243Z,97918.94
2019-02-20T17:05:58.513Z,97919.22
2019-02-20T17:08:29.175Z,97917.47
2019-02-20T17:10:59.820Z,97912.27
2019-02-20T17:13:30.326Z,97913.20
2019-02-20T17:16:00.861Z,97908.72
2019-02-20T17:18:31.530Z,97902.23
2019-02-20T17:21:02.428Z,97900.37
2019-02-20T17:23:32.549Z,97904.83
2019-02-20T17:26:03.503Z,97901.48
2019-02-20T17:28:34.086Z,97900.91
2019-02-20T17:31:04.692Z,97898.12
2019-02-20T17:33:35.099Z,97896.80
2019-02-20T17:36:05.429Z,97903.09
2019-02-20T17:38:36.286Z,97899.53
2019-02-20T17:41:07.160Z,97894.99
2019-02-20T17:43:37.350Z,97886.84
2019-02-20T17:46:07.813Z,97888.61
2019-02-20T17:48:38.432Z,97885.73
2019-02-20T17:51:08.936Z,97878.69
2019-02-20T17:53:40.831Z,97877.92
2019-02-20T17:56:11.342Z,97871.34
2019-02-20T17:58:45.098Z,97871.91
2019-02-20T18:01:18.189Z,97871.34
2019-02-20T18:03:49.161Z,97875.52
2019-02-20T18:06:19.808Z,97856.13
2019-02-20T18:08:54.232Z,97853.36
2019-02-20T18:11:24.764Z,97852.63
2019-02-20T18:13:55.538Z,97855.91
2019-02-20T18:16:25.909Z,97851.25
2019-02-20T18:18:56.472Z,97847.44
2019-02-20T18:21:26.793Z,97846.33
2019-02-20T18:24:00.574Z,97852.09
2019-02-20T18:26:31.402Z,97849.41
2019-02-20T18:29:07.804Z,97844.75
2019-02-20T18:31:38.508Z,97843.73
2019-02-20T18:34:09.792Z,97835.77
2019-02-20T18:36:40.816Z,97838.20
2019-02-20T18:39:11.458Z,97840.33
2019-02-20T18:41:41.996Z,97843.37
2019-02-20T18:44:12.487Z,97834.58
2019-02-20T18:46:42.812Z,97826.31
2019-02-20T18:49:13.245Z,97829.34
2019-02-20T18:51:43.990Z,97832.41
2019-02-20T18:54:14.561Z,97824.78
2019-02-20T18:56:44.888Z,97819.23
2019-02-20T18:59:16.092Z,97812.91
2019-02-20T19:01:46.934Z,97815.59
2019-02-20T19:04:17.821Z,97824.67
2019-02-20T19:06:48.136Z,97819.20
2019-02-20T19:09:27.355Z,97812.09
2019-02-20T19:12:16.955Z,97814.59
2019-02-20T19:15:01.557Z,97806.08
2019-02-20T19:18:19.922Z,97809.20
2019-02-20T19:21:04.702Z,97797.73
2019-02-20T19:24:14.905Z,97797.14
2019-02-20T19:27:35.840Z,97792.97
2019-02-20T19:30:46.212Z,97785.35
2019-02-20T19:33:34.383Z,97786.03
2019-02-20T19:36:34.869Z,97773.14
2019-02-20T19:39:20.600Z,97779.17
2019-02-20T19:42:21.567Z,97772.48
2019-02-20T19:45:09.330Z,97774.45
2019-02-20T19:47:53.230Z,97763.14
2019-02-20T19:51:04.734Z,97760.99
2019-02-20T19:54:12.871Z,97759.69
2019-02-20T19:57:33.487Z,97760.09
2019-02-20T20:01:00.323Z,97749.22
2019-02-20T20:04:03.269Z,97751.20
2019-02-20T20:06:57.766Z,97749.89
2019-02-20T20:09:34.475Z,97743.95
2019-02-20T20:12:58.551Z,97746.27
2019-02-20T20:15:51.130Z,97747.73
2019-02-20T20:19:06.284Z,97738.66
2019-02-20T20:21:49.037Z,97737.84
2019-02-20T20:24:33.825Z,97735.61
2019-02-20T20:27:42.620Z,97733.82
2019-02-20T20:30:46.329Z,97729.56
2019-02-20T20:33:43.185Z,97728.36
2019-02-20T20:36:39.328Z,97729.74
2019-02-20T20:39:36.927Z,97724.55
2019-02-20T20:42:43.268Z,97723.91
2019-02-20T20:45:49.741Z,97721.68
2019-02-20T20:48:30.599Z,97716.87
2019-02-20T20:51:40.713Z,97712.22
2019-02-20T20:54:50.052Z,97714.00
2019-02-20T20:57:54.891Z,97703.81
2019-02-20T21:01:03.865Z,97703.72
2019-02-20T21:03:37.261Z,97695.36
2019-02-20T21:06:44.553Z,97688.70
2019-02-20T21:09:43.357Z,97691.37
2019-02-20T21:13:03.632Z,97691.92
2019-02-20T21:16:01.707Z,97701.66
2019-02-20T21:19:21.598Z,97686.84
2019-02-20T21:22:06.446Z,97690.35
2019-02-20T21:25:10.996Z,97685.44
2019-02-20T21:28:13.098Z,97674.59
2019-02-20T21:31:20.865Z,97676.34
2019-02-20T21:34:20.657Z,97675.13
2019-02-20T21:37:27.978Z,97674.21
2019-02-20T21:40:33.368Z,97668.54
2019-02-20T21:43:34.699Z,97666.43
2019-02-20T21:46:40.224Z,97652.87
2019-02-20T21:49:52.250Z,97655.47
2019-02-20T21:53:02.017Z,97652.87
2019-02-20T21:55:52.572Z,97652.34
2019-02-20T21:58:46.914Z,97645.77
2019-02-20T22:01:42.900Z,97640.02
2019-02-20T22:04:39.989Z,97641.59
2019-02-20T22:07:53.945Z,97652.98
2019-02-20T22:10:34.108Z,97646.83
2019-02-20T22:13:37.918Z,97640.59
2019-02-20T22:16:32.396Z,97640.95
2019-02-20T22:19:10.923Z,97637.13
2019-02-20T22:22:05.138Z,97641.91
2019-02-20T22:25:10.482Z,97632.19
2019-02-20T22:27:48.641Z,97641.17
2019-02-20T22:30:41.146Z,97639.23
2019-02-20T22:34:05.392Z,97630.73
2019-02-20T22:37:03.338Z,97640.25
2019-02-20T22:40:14.273Z,97634.22
2019-02-20T22:43:37.159Z,97629.80
2019-02-20T22:46:40.454Z,97635.55
2019-02-20T22:49:33.494Z,97627.23
2019-02-20T22:52:48.567Z,97624.08
2019-02-20T22:55:59.945Z,97624.84
2019-02-20T22:58:55.641Z,97624.56
2019-02-20T23:02:05.124Z,97616.88
2019-02-20T23:05:17.377Z,97619.30
2019-02-20T23:08:09.320Z,97616.05
2019-02-20T23:11:17.815Z,97615.41
2019-02-20T23:14:26.987Z,97619.04
2019-02-20T23:16:58.157Z,97619.85
2019-02-20T23:19:28.340Z,97624.22
2019-02-20T23:21:58.347Z,97619.21
2019-02-20T23:24:28.359Z,97613.01
2019-02-20T23:26:58.624Z,97607.94
2019-02-20T23:29:28.738Z,97611.73
2019-02-20T23:31:58.946Z,97611.91
2019-02-20T23:34:31.159Z,97611.06
2019-02-20T23:37:01.148Z,97609.31
2019-02-20T23:39:31.152Z,97616.16
2019-02-20T23:42:01.312Z,97618.58
2019-02-20T23:44:31.658Z,97616.75
2019-02-20T23:47:01.609Z,97616.65
2019-02-20T23:49:31.779Z,97611.57
2019-02-20T23:52:01.954Z,97618.59
2019-02-20T23:54:32.346Z,97623.22
2019-02-20T23:57:02.423Z,97612.84
2019-02-20T23:59:33.150Z,97606.73
